Latest Weather Observations for Kuitpo

IDS60801

Issued at 3:32 pm CDT Saturday 20 December 2014 (issued every 30 minutes, with the page automatically refreshed every 10 minutes)

About weather observations | Map of weather stations | Latest weather observations for SA | Other Formats
Station Details ID: 023887 Name: KUITPO FOREST RESERVE Lat: -35.17 Lon: 138.68 Height: 365.0 m
Data from the previous 72 hours. | See also: Recent months at Kuitpo
Date/Time
CDT
Temp
°C
App
Temp
°C
Dew
Point
Rel
Hum
%
Delta-T
°C
Wind Press
QNH
hPa
Press
MSL
hPa
Rain
since 9 am
mm
Dir
 
Spd
km/h
Gust
km/h
Spd
kts
Gust
kts
20/03:30pm 25.2 22.3 11.0 41 8.1 WSW 17 26 9 14 1014.8 1013.8 0.0
20/03:00pm 25.7 23.0 10.3 38 8.7 WSW 15 26 8 14 1015.3 1014.3 0.0
20/02:30pm 25.7 22.6 10.3 38 8.7 WSW 17 30 9 16 1015.7 1014.7 0.0
20/02:00pm 24.9 22.2 10.4 40 8.2 WSW 15 20 8 11 1016.2 1015.1 0.0
20/01:30pm 23.7 21.1 9.3 40 7.9 W 13 20 7 11 1016.7 1015.7 0.0
20/01:00pm 23.4 21.3 8.3 38 8.1 W 9 17 5 9 1017.0 1016.0 0.0
20/12:30pm 22.9 21.3 8.6 40 7.7 NNW 7 15 4 8 1017.5 1016.5 0.0
20/12:00pm 22.1 20.1 8.6 42 7.3 NNE 9 17 5 9 1017.7 1016.7 0.0
20/11:30am 21.1 19.6 9.0 46 6.5 NNE 7 15 4 8 1018.0 1017.0 0.0
20/11:00am 20.5 18.8 9.7 50 5.9 NNE 9 17 5 9 1018.2 1017.2 0.0
20/10:30am 20.1 18.4 9.9 52 5.6 NE 9 19 5 10 1018.3 1017.3 0.0
20/10:00am 19.0 16.6 8.6 51 5.5 ENE 11 17 6 9 1018.5 1017.5 0.0
20/09:30am 17.3 14.5 10.0 62 3.9 E 15 20 8 11 1018.8 1017.8 0.0
20/09:00am 16.6 14.0 9.5 63 3.8 ENE 13 19 7 10 1019.1 1018.1 0.0
20/08:30am 15.2 12.2 9.3 68 3.1 E 15 20 8 11 1018.7 1017.7 0.0
20/08:00am 14.2 11.4 10.0 76 2.2 NE 15 20 8 11 1018.6 1017.6 0.0
20/07:30am 12.7 9.9 9.9 83 1.5 ENE 15 20 8 11 1018.5 1017.5 0.0
20/07:00am 11.6 8.8 9.9 89 0.9 ENE 15 20 8 11 1018.3 1017.3 0.0
20/06:30am 10.9 7.6 9.7 92 0.6 ENE 17 20 9 11 1018.1 1017.1 0.0
20/06:00am 10.8 7.5 9.6 92 0.6 ENE 17 20 9 11 1017.8 1016.8 0.0
20/05:30am 11.0 7.7 9.6 91 0.7 E 17 22 9 12 1017.4 1016.4 0.0
20/05:00am 11.0 7.1 9.6 91 0.7 E 20 26 11 14 1017.2 1016.2 0.0
20/04:30am 11.1 7.5 9.9 92 0.6 E 19 24 10 13 1017.1 1016.1 0.0
20/04:00am 11.1 7.4 9.4 89 0.9 E 19 24 10 13 1017.1 1016.1 0.0
20/03:30am 11.3 8.0 9.4 88 1.0 E 17 24 9 13 1017.2 1016.2 0.0
20/03:00am 11.1 7.4 9.4 89 0.9 E 19 22 10 12 1017.4 1016.4 0.0
20/02:30am 11.0 7.7 9.4 90 0.8 ESE 17 24 9 13 1017.7 1016.7 0.0
20/02:00am 11.1 7.3 9.2 88 1.0 ESE 19 24 10 13 1018.0 1017.0 0.0
20/01:30am 11.2 7.8 9.3 88 1.0 ESE 17 20 9 11 1018.6 1017.6 0.0
20/01:00am 11.3 8.0 9.4 88 1.0 ESE 17 20 9 11 1019.1 1018.1 0.0
20/12:30am 11.4 8.5 9.5 88 1.0 ESE 15 20 8 11 1019.4 1018.4 0.0
20/12:00am 11.5 8.9 9.4 87 1.1 ESE 13 19 7 10 1019.6 1018.6 0.0
 
Date/Time
CDT
Temp
°C
App
Temp
°C
Dew
Point
Rel
Hum
%
Delta-T
°C
Wind Press
QNH
hPa
Press
MSL
hPa
Rain
since 9 am
mm
Dir
 
Spd
km/h
Gust
km/h
Spd
kts
Gust
kts
19/11:30pm 11.6 9.0 9.3 86 1.2 ESE 13 17 7 9 1019.8 1018.8 0.0
19/11:00pm 11.9 8.9 9.3 84 1.3 SE 15 20 8 11 1019.9 1018.9 0.0
19/10:30pm 12.1 9.1 9.3 83 1.4 SE 15 24 8 13 1019.9 1018.9 0.0
19/10:00pm 12.3 8.9 9.1 81 1.6 SE 17 22 9 12 1020.1 1019.1 0.0
19/09:30pm 12.5 9.4 9.0 79 1.8 SE 15 26 8 14 1020.1 1019.1 0.0
19/09:00pm 12.9 9.4 8.8 76 2.1 SSE 17 32 9 17 1019.8 1018.8 0.0
19/08:30pm 13.4 9.9 8.7 73 2.4 SSE 17 32 9 17 1019.7 1018.7 0.0
19/08:00pm 14.4 10.5 8.6 68 3.0 SSE 19 30 10 16 1019.8 1018.8 0.0
19/07:30pm 15.6 11.6 8.4 62 3.7 SSE 19 30 10 16 1019.7 1018.7 0.0
19/07:00pm 16.5 12.8 8.0 57 4.4 SSE 17 24 9 13 1019.4 1018.4 0.0
19/06:30pm 18.2 15.1 8.7 54 5.0 S 15 22 8 12 1019.1 1018.1 0.0
19/06:00pm 18.8 16.1 9.0 53 5.2 S 13 24 7 13 1018.7 1017.7 0.0
19/05:30pm 19.8 16.9 9.7 52 5.5 SW 15 26 8 14 1018.5 1017.5 0.0
19/05:00pm 19.4 15.5 9.3 52 5.4 WSW 20 30 11 16 1018.6 1017.6 0.0
19/04:30pm 20.1 15.6 8.4 47 6.2 WSW 22 35 12 19 1018.8 1017.8 0.0
19/04:00pm 20.1 16.1 8.1 46 6.3 W 19 35 10 19 1018.8 1017.8 0.0
19/03:30pm 20.2 16.3 8.8 48 6.1 WSW 19 30 10 16 1018.9 1017.9 0.0
19/03:00pm 19.3 15.3 8.9 51 5.5 W 20 33 11 18 1019.1 1018.1 0.0
19/02:30pm 19.3 15.4 9.5 53 5.3 WSW 20 30 11 16 1019.4 1018.4 0.0
19/02:00pm 18.9 15.0 9.4 54 5.1 WSW 20 30 11 16 1019.4 1018.4 0.0
19/01:30pm 18.5 14.6 9.6 56 4.8 WSW 20 32 11 17 1019.4 1018.4 0.0
19/01:00pm 18.4 16.1 8.9 54 5.0 W 11 22 6 12 1019.6 1018.6 0.0
19/12:30pm 17.7 13.6 8.8 56 4.7 WSW 20 32 11 17 1019.8 1018.8 0.0
19/12:00pm 17.0 13.7 8.2 56 4.6 WNW 15 22 8 12 1019.7 1018.7 0.0
19/11:30am 17.1 14.0 7.2 52 5.0 SW 13 20 7 11 1019.7 1018.7 0.0
19/11:00am 16.4 14.0 7.1 54 4.7 W 9 17 5 9 1019.7 1018.7 0.0
19/10:30am 16.2 12.9 6.3 52 4.9 SSE 13 20 7 11 1019.7 1018.7 0.0
19/10:00am 16.4 14.3 8.4 59 4.2 S 9 17 5 9 1019.8 1018.8 0.0
19/09:30am 14.2 12.0 7.9 66 3.2 SSE 9 15 5 8 1019.6 1018.6 0.0
19/09:00am 13.2 11.5 8.5 73 2.4 S 7 15 4 8 1019.3 1018.3 0.0
19/08:30am 13.0 10.9 8.1 72 2.5 S 9 13 5 7 1018.9 1017.9 0.0
19/08:00am 12.9 10.7 7.8 71 2.6 SSE 9 13 5 7 1018.5 1017.5 0.0
19/07:30am 11.9 9.9 7.2 73 2.3 ESE 7 11 4 6 1018.0 1017.0 0.0
19/07:00am 11.5 9.8 7.6 77 1.9 SSE 6 9 3 5 1017.5 1016.5 0.0
19/06:30am 10.0 8.0 7.3 83 1.3 S 7 9 4 5 1017.5 1016.5 0.0
19/06:00am 9.7 7.7 7.3 85 1.2 S 7 11 4 6 1017.3 1016.3 0.0
19/05:30am 9.9 7.9 7.3 84 1.3 SSW 7 11 4 6 1017.1 1016.1 0.0
19/05:00am 10.0 7.7 7.3 83 1.3 SSW 9 13 5 7 1017.0 1016.0 0.0
19/04:30am 10.1 8.2 7.5 84 1.3 SSW 7 11 4 6 1016.7 1015.7 0.0
19/04:00am 10.2 7.9 7.6 84 1.3 SSW 9 11 5 6 1016.7 1015.7 0.0
19/03:30am 10.9 8.3 7.6 80 1.6 SSW 11 17 6 9 1016.6 1015.5 0.0
19/03:00am 10.3 7.9 6.8 79 1.7 SSW 9 13 5 7 1016.7 1015.7 0.0
19/02:30am 10.3 7.8 6.6 78 1.8 SW 9 11 5 6 1016.8 1015.8 0.0
19/02:00am 10.4 7.9 6.7 78 1.8 SW 9 13 5 7 1016.9 1015.9 0.0
19/01:30am 10.6 8.1 6.6 76 1.9 SW 9 11 5 6 1016.9 1015.9 0.0
19/01:00am 10.7 8.3 6.8 77 1.9 SW 9 13 5 7 1016.9 1015.9 0.0
19/12:30am 10.7 7.5 6.8 77 1.9 SSW 13 19 7 10 1016.9 1015.9 0.0
19/12:00am 10.7 8.0 7.4 80 1.6 SSW 11 15 6 8 1016.9 1015.9 0.0
 
Date/Time
CDT
Temp
°C
App
Temp
°C
Dew
Point
Rel
Hum
%
Delta-T
°C
Wind Press
QNH
hPa
Press
MSL
hPa
Rain
since 9 am
mm
Dir
 
Spd
km/h
Gust
km/h
Spd
kts
Gust
kts
18/11:30pm 10.5 7.5 7.6 82 1.4 SSW 13 17 7 9 1016.7 1015.7 0.0
18/11:00pm 10.9 7.9 7.6 80 1.6 S 13 17 7 9 1016.4 1015.3 0.0
18/10:30pm 11.1 8.6 6.6 74 2.2 SSW 9 15 5 8 1016.4 1015.3 0.0
18/10:00pm 11.9 9.4 6.6 70 2.6 S 9 15 5 8 1016.0 1015.0 0.0
18/09:30pm 12.1 8.7 5.7 65 3.0 S 13 19 7 10 1015.7 1014.7 0.0
18/09:00pm 12.8 9.2 5.2 60 3.6 S 13 22 7 12 1015.4 1014.4 0.0
18/08:30pm 13.5 9.8 6.1 61 3.6 SSW 15 26 8 14 1015.2 1014.2 0.0
18/08:00pm 14.3 10.3 6.6 60 3.8 SSW 17 24 9 13 1014.9 1013.9 0.0
18/07:30pm 15.2 10.9 7.2 59 4.0 SSW 19 28 10 15 1014.5 1013.5 0.0
18/07:00pm 17.0 13.3 7.9 55 4.7 SSW 17 28 9 15 1014.0 1012.9 0.0
18/06:30pm 16.7 12.7 8.1 57 4.4 SSW 19 30 10 16 1013.7 1012.6 0.0
18/06:00pm 17.9 13.1 8.7 55 4.8 SW 24 41 13 22 1013.2 1012.2 0.0
18/05:30pm 18.8 14.3 8.7 52 5.4 WSW 22 35 12 19 1012.8 1011.8 0.0
18/05:00pm 18.3 13.2 9.1 55 4.9 WSW 26 37 14 20 1012.7 1011.7 0.0
18/04:30pm 18.0 13.9 10.1 60 4.3 WSW 22 39 12 21 1012.4 1011.4 0.0
18/04:00pm 18.0 13.0 9.6 58 4.5 WSW 26 41 14 22 1012.3 1011.3 0.0
18/03:30pm 19.4 14.6 10.4 56 4.9 WSW 26 39 14 21 1012.2 1011.2 0.0
18/03:00pm 19.7 14.8 9.9 53 5.3 WSW 26 46 14 25 1011.8 1010.7 0.0
18/02:37pm 19.2 13.9 9.7 54 5.1 WSW 28 46 15 25 1011.7 1010.6 0.0
18/02:30pm 19.1 15.1 10.6 58 4.7 WSW 22 37 12 20 1011.7 1010.6 0.0
18/02:00pm 18.8 14.5 10.9 60 4.4 WSW 24 37 13 20 1011.7 1010.6 0.0
18/01:30pm 17.8 12.8 11.1 65 3.7 WSW 28 41 15 22 1011.6 1010.5 0.0
18/01:00pm 18.6 13.6 10.9 61 4.2 WSW 28 48 15 26 1011.4 1010.3 0.0
18/12:32pm 16.6 11.9 11.9 74 2.6 WSW 28 46 15 25 1011.3 1010.2 0.0
18/12:30pm 16.9 12.2 12.0 73 2.7 WSW 28 44 15 24 1011.3 1010.2 0.0
18/12:00pm 17.6 11.0 10.0 61 4.1 WSW 35 57 19 31 1010.9 1009.8 0.0
18/11:30am 16.9 11.2 11.2 69 3.1 W 32 52 17 28 1011.0 1009.9 0.0
18/11:08am 17.3 11.4 9.2 59 4.3 W 30 48 16 26 1010.7 1009.6 0.0
18/11:00am 16.1 11.2 11.3 73 2.6 W 28 44 15 24 1010.8 1009.7 0.0
18/10:38am 16.0 10.5 10.5 70 3.0 W 30 48 16 26 1010.6 1009.5 0.0
18/10:30am 16.5 11.3 10.4 67 3.3 W 28 43 15 23 1010.6 1009.5 0.0
18/10:00am 16.2 11.5 10.7 70 3.0 W 26 41 14 22 1010.3 1009.3 0.0
18/09:40am 15.2 9.2 10.0 71 2.8 W 32 52 17 28 1010.0 1009.0 0.0
18/09:30am 15.2 9.6 10.2 72 2.7 WNW 30 43 16 23 1010.0 1009.0 0.0
18/09:00am 15.2 10.5 10.8 75 2.4 WNW 26 46 14 25 1009.7 1008.7 0.0
18/08:58am 15.1 10.0 10.5 74 2.5 WNW 28 46 15 25 1009.6 1008.6 0.0
18/08:30am 14.9 10.4 9.9 72 2.7 WNW 24 43 13 23 1009.4 1008.3 0.0
18/08:00am 15.0 10.6 10.4 74 2.5 W 24 41 13 22 1009.0 1007.9 0.0
18/07:30am 14.4 11.2 9.8 74 2.4 W 17 33 9 18 1008.6 1007.5 0.0
18/07:00am 13.2 9.6 10.0 81 1.7 WNW 19 28 10 15 1008.5 1007.4 0.0
18/06:30am 12.4 8.8 10.0 85 1.3 W 19 26 10 14 1008.4 1007.3 0.0
18/06:00am 12.3 9.0 9.7 84 1.4 WNW 17 26 9 14 1008.2 1007.1 0.0
18/05:30am 11.8 9.2 9.2 84 1.3 W 13 22 7 12 1007.8 1006.7 0.0
18/05:00am 11.5 9.5 10.1 91 0.7 WNW 11 17 6 9 1007.3 1006.3 0.0
18/04:30am 11.4 9.3 9.8 90 0.8 W 11 15 6 8 1007.2 1006.2 0.0
18/04:00am 11.2 9.0 9.3 88 1.0 W 11 15 6 8 1007.1 1006.1 0.0
18/03:30am 11.0 9.2 9.6 91 0.7 W 9 13 5 7 1006.9 1005.8 0.0
18/03:00am 10.8 9.0 9.4 91 0.7 W 9 11 5 6 1006.9 1005.8 0.0
18/02:30am 11.0 9.6 9.6 91 0.7 N 7 9 4 5 1006.7 1005.6 0.0
18/02:00am 10.8 9.4 9.4 91 0.7 NNE 7 7 4 4 1006.9 1005.8 0.0
18/01:30am 11.2 10.0 9.5 89 0.9 NE 6 7 3 4 1007.2 1006.2 0.0
18/01:00am 11.2 9.7 9.3 88 1.0 NE 7 9 4 5 1007.4 1006.4 0.0
18/12:30am 11.5 10.3 9.4 87 1.1 ENE 6 7 3 4 1007.9 1006.8 0.0
18/12:00am 11.7 10.4 9.3 85 1.2 SE 6 9 3 5 1008.0 1006.9 0.0
 
Date/Time
CDT
Temp
°C
App
Temp
°C
Dew
Point
Rel
Hum
%
Delta-T
°C
Wind Press
QNH
hPa
Press
MSL
hPa
Rain
since 9 am
mm
Dir
 
Spd
km/h
Gust
km/h
Spd
kts
Gust
kts
17/11:30pm 12.0 10.8 9.4 84 1.3 SSE 6 7 3 4 1008.3 1007.2 0.0
17/11:00pm 11.9 10.4 9.1 83 1.4 SSE 7 9 4 5 1008.4 1007.3 0.0
17/10:30pm 11.9 10.3 8.9 82 1.5 SSE 7 11 4 6 1008.4 1007.3 0.0
17/10:00pm 12.3 10.7 8.6 78 1.9 SSE 7 9 4 5 1008.3 1007.2 0.0
17/09:30pm 13.1 11.3 8.0 71 2.6 SE 7 9 4 5 1008.2 1007.1 0.0
17/09:00pm 14.1 11.3 6.9 62 3.6 WSW 11 17 6 9 1007.8 1006.7 0.0
17/08:30pm 15.2 11.9 6.2 55 4.4 WSW 13 19 7 10 1007.4 1006.4 0.0
17/08:00pm 17.0 14.1 6.5 50 5.3 WSW 11 17 6 9 1007.2 1006.2 0.0
17/07:30pm 17.7 14.5 5.3 44 6.1 SW 11 15 6 8 1007.0 1005.9 0.0
17/07:00pm 18.4 15.0 5.9 44 6.3 WSW 13 17 7 9 1007.0 1005.9 0.0
17/06:30pm 19.2 15.9 6.3 43 6.6 WSW 13 20 7 11 1007.1 1006.1 0.0
17/06:00pm 19.4 15.5 5.5 40 7.0 SW 15 20 8 11 1007.0 1005.9 0.0
17/05:30pm 19.3 15.1 3.9 36 7.5 W 15 22 8 12 1007.2 1006.2 0.0
17/05:00pm 19.7 14.9 4.6 37 7.4 WSW 19 33 10 18 1007.3 1006.3 0.0
17/04:30pm 19.6 15.3 5.3 39 7.1 WSW 17 26 9 14 1007.8 1006.7 0.0
17/04:00pm 19.2 15.7 5.3 40 6.9 W 13 24 7 13 1007.9 1006.8 0.0

Other Formats:

Comma delimited format used in spreadsheet applications
http://www.bom.gov.au/fwo/IDS60801/IDS60801.94683.axf

JavaScript Object Notation format (JSON) in row-major order
http://www.bom.gov.au/fwo/IDS60801/IDS60801.94683.json